• Join FlightAware (Why Join?)
  • Login
  • US Flag 
10:31PM EDT


 

Airport Tracker/Info


-or-


 

Live Flight TrackerFlight Track Log ✈ ASQ5810 ✈ 26-May-2013 ✈ KSBN - KORD

Flight Track Log - Related Links

Times and Time Zones

All times are in EDT time to prevent confusion due to time zone crossing. See the ASQ5810 flight status page for this flight to view local times or setup timezone preferences in your user account.

Time Position Orientation Groundspeed Altitude Reporting Facility
EDT Latitude Longitude Course Direction KTS MPH feet Rate Location/Type
12:54PM 41.7794 -86.2592 312° West 224 258 5,800  Level Chicago Center
12:55PM 41.9039 -86.5359 308° West  Level FlightAware Approximate
12:55PM 41.8133 -86.3286 303° West 223 257 7,800  Level Chicago Center
12:56PM 41.9471 -86.6114 308° West  Level FlightAware Approximate
12:56PM 41.8531 -86.3994 307° West 234 269 8,000  Level Chicago Center
12:57PM 41.9903 -86.6871 308° West  Level FlightAware Approximate
12:57PM 41.8975 -86.4775 307° West 257 296 8,000  Level Chicago Center
12:58PM 42.0376 -86.7646 312° West  Level FlightAware Approximate
12:58PM 41.9431 -86.5603 307° West 273 314 8,000  Level Chicago Center
12:59PM 42.0874 -86.8393 312° West  Level FlightAware Approximate
12:59PM 41.9975 -86.6556 308° West 269 310 8,000  Level Chicago Center
01:00PM 42.0369 -86.7275 306° West 269 310 8,000  Level Chicago Center
01:01PM 42.0919 -86.8269 307° West 278 320 8,000  Level Chicago Center
01:02PM 42.1383 -86.9094 307° West 279 321 8,000  Level Chicago Center
01:03PM 42.1594 -87.0061 286° West 280 322 8,000  Level Chicago Center
01:04PM 42.1636 -87.1042 273° West 265 305 8,000 -300 Level Chicago Center
01:05PM 42.1708 -87.2067 275° West 273 314 7,400 -540 Descending Chicago Center
01:06PM 42.1786 -87.3089 276° West 275 316 7,000 -300 Descending Chicago Center
01:07PM 42.1775 -87.4083 269° West 270 311 6,900 -720 Descending Chicago Center
01:08PM 42.1736 -87.5022 267° West 256 295 5,600 -1,140 Descending Chicago Center
01:09PM 42.1544 -87.6108 257° West 256 295 4,600 -840 Descending Chicago Center
01:10PM 42.1322 -87.7017 252° West 255 293 3,900 -540 Descending Chicago Center
01:11PM 42.1100 -87.7825 250° West 247 284 3,500 -780 Descending Chicago Center
01:12PM 42.0639 -87.8233 213° Southwest 216 249 2,400 -1,020 Descending Chicago Center
01:13PM 42.0292 -87.8636 221° Southwest 189 217 1,500 -900 Descending Chicago Center